»·PEaware :: FLSHBK14 KSNA-KSNA

FLSHBK14 :: KSNA-KSNA

FLIGHT INFORMATION

Flight Status: Arrived
Operator: Unknown
More flights by this operator :: More flights under this callsign
Pilot: Anonymous 3903 (3903)
Aircraft: GRUMMAN AERO F-14 TOMCAT
(F14)
More flights by this aircraft type
Origin: KSNA John Wayne-Orange Co
United States
Destination: KSNA John Wayne-Orange Co
United States
More flights between these airports :: More routes between these airports
Route: MUSEL8 SLI
File this flight plan on PilotEdge
Remarks: ILS 20R
Altitude:
(Current/Filed)
4,000ft
Speed:
(Current/Filed)
210kts
Departed: 12-Apr-17 09:45 AM
Arrived: 12-Apr-17 10:08 AM
Distance/Time
Traveled:
0nm/0:22
Distance/Time
To Go:
Arrived

Flight Plot

Page will automatically refresh every two minutes.

Flight plan parsing failed; only flown route is shown


Map Options




Map Legend


Flown Route
Filed Route
Departure Airport
Arrival Airport
Navaid (VOR, NDB)
Fix

Horizontal Profiles

Position Reports

Time Latitude Longitude Heading Altitude Ground
Speed
12-Apr-17 09:21 33.673370 -117.865595 26 61ft 0kts
12-Apr-17 09:22 33.673371 -117.865594 26 61ft 0kts
12-Apr-17 09:23 33.673372 -117.865593 26 61ft 0kts
12-Apr-17 09:24 33.673373 -117.865593 26 61ft 0kts
12-Apr-17 09:25 33.673374 -117.865592 26 61ft 0kts
12-Apr-17 09:26 33.673376 -117.865591 26 61ft 0kts
12-Apr-17 09:27 33.675992 -117.865162 27 61ft 25kts
12-Apr-17 09:33 33.673985 -117.865194 28 61ft 0kts
12-Apr-17 09:34 33.673986 -117.865193 28 61ft 0kts
12-Apr-17 09:35 33.673986 -117.865193 28 61ft 0kts
12-Apr-17 09:36 33.673986 -117.865193 28 61ft 0kts
12-Apr-17 09:37 33.673986 -117.865193 28 61ft 0kts
12-Apr-17 09:38 33.673986 -117.865193 28 61ft 0kts
12-Apr-17 09:39 33.673987 -117.865193 28 61ft 0kts
12-Apr-17 09:40 33.674548 -117.865450 300 61ft 8kts
12-Apr-17 09:41 33.679220 -117.863146 27 61ft 27kts
12-Apr-17 09:42 33.680569 -117.863045 298 61ft 0kts
12-Apr-17 09:43 33.680913 -117.863830 298 61ft 17kts
12-Apr-17 09:44 33.681195 -117.864456 298 61ft 0kts
12-Apr-17 09:45 33.681306 -117.865260 207 61ft 0kts
12-Apr-17 09:46 33.650013 -117.885858 209 1563ft 200kts
12-Apr-17 09:47 33.595487 -117.901479 189 4111ft 204kts
12-Apr-17 09:48 33.538385 -117.912798 190 5031ft 210kts
12-Apr-17 09:49 33.523364 -117.865945 15 4997ft 217kts
12-Apr-17 09:50 33.574548 -117.896238 324 5009ft 214kts
12-Apr-17 09:51 33.625742 -117.936645 325 5050ft 225kts
12-Apr-17 09:52 33.676948 -117.976995 327 5005ft 215kts
12-Apr-17 09:53 33.727263 -118.013460 328 5001ft 213kts
12-Apr-17 09:54 33.783429 -118.042769 15 4993ft 236kts
12-Apr-17 09:55 33.815051 -117.980845 64 5002ft 217kts
12-Apr-17 09:56 33.841507 -117.913624 64 5006ft 230kts
12-Apr-17 09:57 33.869946 -117.844547 60 5007ft 232kts
12-Apr-17 09:58 33.897894 -117.779514 62 4170ft 213kts
12-Apr-17 09:59 33.924653 -117.716799 62 4028ft 213kts
12-Apr-17 10:00 33.975978 -117.697735 338 4039ft 211kts
12-Apr-17 10:01 34.011435 -117.678184 131 3619ft 217kts
12-Apr-17 10:02 33.959441 -117.689127 204 3498ft 202kts
12-Apr-17 10:03 33.907761 -117.721538 208 3544ft 206kts
12-Apr-17 10:04 33.857146 -117.753914 207 3374ft 196kts
12-Apr-17 10:05 33.808495 -117.784409 207 2704ft 202kts
12-Apr-17 10:06 33.760117 -117.815062 207 1758ft 178kts
12-Apr-17 10:07 33.720189 -117.840617 207 949ft 153kts
12-Apr-17 10:08 33.683905 -117.863615 207 143ft 143kts
12-Apr-17 10:09 33.672100 -117.872057 267 61ft 0kts
12-Apr-17 10:10 33.672344 -117.872459 24 61ft 11kts
12-Apr-17 10:11 33.678260 -117.868814 27 61ft 25kts
12-Apr-17 10:12 33.681918 -117.866058 114 61ft 8kts
12-Apr-17 10:13 33.660534 -117.879697 228 1411ft 183kts
12-Apr-17 10:14 33.693849 -117.891990 28 1622ft 191kts
12-Apr-17 10:15 33.697466 -117.855837 191 727ft 157kts
12-Apr-17 10:16 33.661273 -117.883944 269 1504ft 191kts
12-Apr-17 10:17 33.704662 -117.879164 54 1375ft 172kts
12-Apr-17 10:18 33.678601 -117.866956 207 61ft 148kts
12-Apr-17 10:19 33.680699 -117.893192 28 1496ft 175kts
12-Apr-17 10:20 33.704242 -117.857502 136 758ft 172kts
12-Apr-17 10:21 33.671486 -117.871497 208 61ft 51kts
12-Apr-17 10:22 33.670263 -117.869674 40 61ft 26kts
12-Apr-17 10:23 33.671392 -117.867376 30 61ft 0kts

Navigation Log

Ident Type
Flight plan parsing failed, navigation log unavailable